Terminal Aerodrome Forecast
Issued by NWS

Home | Current Version | Previous Version | Text Only | Print | Product List | Glossary On
Versions: 1 2 3 4 5 6 7 8 9 10 11 12
000
FTAK31 PAJN 021700
TAFAKT
TAF
PAKT 021737Z 0218/0318 13006KT P6SM SCT030 BKN060
     FM030000 31005KT P6SM BKN060
     FM030600 31004KT P6SM BKN100
     FM031600 31004KT P6SM SCT100
      AMD LTD TO CLD VIS AND WIND 0306/0315=

USA.gov is the U.S. government's official web portal to all federal, state and local government web resources and services.